Time;durP1;ratioP1;P1;durP2;ratioP2;P2;SDS_P1;SDS_P2;PMS_P1;PMS_P2;Temp;Humidity;BMP_temperature;BMP_pressure;BME280_temperature;BME280_humidity;BME280_pressure;Samples;Min_cycle;Max_cycle;Signal;HPM_P1;HPM_P2
2023/04/20 00:00:09;;;;;;;6.93;4.20;;;6.60;99.90;;;;;;5078782;28;20834;-60
2023/04/20 00:02:37;;;;;;;5.13;4.60;;;6.70;99.90;;;;;;5079004;28;20761;-60
2023/04/20 00:05:06;;;;;;;7.60;4.40;;;6.80;99.90;;;;;;5078951;28;20461;-60
2023/04/20 00:07:33;;;;;;;5.50;4.50;;;6.90;99.90;;;;;;5078817;28;20945;-60
2023/04/20 00:10:00;;;;;;;6.20;5.10;;;7.00;99.90;;;;;;5078272;28;20461;-60
2023/04/20 00:12:28;;;;;;;7.50;4.93;;;7.00;99.90;;;;;;5078752;28;20571;-59
2023/04/20 00:14:55;;;;;;;5.27;4.67;;;7.00;99.90;;;;;;5079130;28;20489;-60
2023/04/20 00:17:23;;;;;;;6.73;5.30;;;7.00;99.90;;;;;;5078792;28;20874;-60
2023/04/20 00:19:51;;;;;;;5.60;5.10;;;7.00;99.90;;;;;;5078237;28;20469;-60
2023/04/20 00:22:18;;;;;;;6.73;5.43;;;7.00;99.90;;;;;;5078313;28;20508;-59
2023/04/20 00:24:45;;;;;;;5.33;4.73;;;7.00;99.90;;;;;;5078696;28;20552;-60
2023/04/20 00:27:12;;;;;;;7.03;5.10;;;6.90;99.90;;;;;;5077944;28;20591;-60
2023/04/20 00:29:40;;;;;;;5.77;5.17;;;6.90;99.90;;;;;;5078206;28;20519;-60
2023/04/20 00:32:07;;;;;;;6.07;4.87;;;6.80;99.90;;;;;;5078180;28;20461;-60
2023/04/20 00:34:36;;;;;;;6.67;5.20;;;6.80;99.90;;;;;;5078357;28;20461;-61
2023/04/20 00:37:03;;;;;;;5.60;4.47;;;6.80;99.90;;;;;;5077671;28;20844;-59
2023/04/20 00:39:30;;;;;;;7.43;5.83;;;6.80;99.90;;;;;;5077731;28;20515;-59
2023/04/20 00:42:05;;;;;;;13.03;7.53;;;6.80;99.90;;;;;;5077640;28;20551;-58
2023/04/20 00:44:32;;;;;;;6.70;5.57;;;6.90;99.90;;;;;;5077658;28;20758;-60
2023/04/20 00:47:00;;;;;;;7.10;5.20;;;6.90;99.90;;;;;;5077660;28;20536;-59
2023/04/20 00:49:29;;;;;;;6.60;5.73;;;6.90;99.90;;;;;;5078157;28;20853;-60
2023/04/20 00:51:58;;;;;;;7.03;5.50;;;6.90;99.90;;;;;;5078026;28;20454;-60
2023/04/20 00:54:26;;;;;;;9.73;6.50;;;6.90;99.90;;;;;;5077995;28;20572;-59
2023/04/20 00:56:54;;;;;;;6.00;5.40;;;6.90;99.90;;;;;;5077590;28;20485;-57
2023/04/20 00:59:22;;;;;;;7.77;5.73;;;6.90;99.90;;;;;;5077826;28;20472;-56
2023/04/20 01:01:49;;;;;;;10.37;6.10;;;6.90;99.90;;;;;;5078007;28;20462;-60
2023/04/20 01:04:17;;;;;;;6.47;5.77;;;6.90;99.90;;;;;;5077512;28;20468;-60
2023/04/20 01:06:44;;;;;;;6.17;5.57;;;6.90;99.90;;;;;;5077949;28;21048;-60
2023/04/20 01:09:13;;;;;;;10.17;6.53;;;6.80;99.90;;;;;;5077705;28;20515;-58
2023/04/20 01:11:41;;;;;;;5.63;5.13;;;6.70;99.90;;;;;;5077365;28;20564;-60
2023/04/20 01:14:08;;;;;;;7.87;5.40;;;6.60;99.90;;;;;;5077503;28;20844;-59
2023/04/20 01:16:35;;;;;;;9.13;5.73;;;6.50;99.90;;;;;;5077682;28;20491;-59
2023/04/20 01:19:02;;;;;;;5.23;4.73;;;6.50;99.90;;;;;;5077834;28;20488;-60
2023/04/20 01:21:31;;;;;;;5.83;4.90;;;6.50;99.90;;;;;;5077601;28;20460;-58
2023/04/20 01:24:00;;;;;;;12.73;5.40;;;6.50;99.90;;;;;;5077617;28;20465;-60
2023/04/20 01:26:27;;;;;;;5.33;4.80;;;6.50;99.90;;;;;;5077458;28;20480;-60
2023/04/20 01:28:55;;;;;;;5.37;4.07;;;6.50;99.90;;;;;;5077617;28;20487;-58
2023/04/20 01:31:22;;;;;;;6.93;5.47;;;6.40;99.90;;;;;;5077467;28;20465;-60
2023/04/20 01:33:49;;;;;;;8.17;5.23;;;6.40;99.90;;;;;;5077705;28;20507;-60
2023/04/20 01:36:16;;;;;;;8.83;5.30;;;6.40;99.90;;;;;;5077600;28;20774;-59
2023/04/20 01:38:44;;;;;;;6.23;5.07;;;6.40;99.90;;;;;;5077195;28;20453;-60
2023/04/20 01:41:12;;;;;;;6.10;4.57;;;6.40;99.90;;;;;;5077307;28;20467;-60
2023/04/20 01:43:40;;;;;;;9.80;5.33;;;6.40;99.90;;;;;;5076966;28;20457;-60
2023/04/20 01:46:08;;;;;;;6.90;5.10;;;6.40;99.90;;;;;;5077487;28;20904;-60
2023/04/20 01:48:35;;;;;;;5.30;4.53;;;6.40;99.90;;;;;;5076927;28;20525;-60
2023/04/20 01:51:02;;;;;;;7.10;5.00;;;6.40;99.90;;;;;;5077335;28;20560;-60
2023/04/20 01:53:29;;;;;;;7.73;5.50;;;6.30;99.90;;;;;;5076861;28;20464;-60
2023/04/20 01:55:57;;;;;;;7.63;5.60;;;6.20;99.90;;;;;;5077217;28;20467;-60
2023/04/20 01:58:25;;;;;;;5.63;4.60;;;6.10;99.90;;;;;;5076711;28;20457;-59
2023/04/20 02:00:52;;;;;;;6.10;5.00;;;6.00;99.90;;;;;;5077337;28;20461;-60
2023/04/20 02:03:20;;;;;;;8.30;5.77;;;6.00;99.90;;;;;;5077151;28;20503;-60
2023/04/20 02:05:47;;;;;;;8.00;5.17;;;5.90;99.90;;;;;;5076660;28;20461;-60
2023/04/20 02:08:14;;;;;;;5.80;4.63;;;6.00;99.90;;;;;;5076286;28;20532;-60
2023/04/20 02:10:41;;;;;;;6.60;4.60;;;6.00;99.90;;;;;;5077049;28;20879;-60
2023/04/20 02:13:58;;;;;;;10.40;4.97;;;6.00;99.90;;;;;;5077119;28;20497;-60
2023/04/20 02:16:28;;;;;;;5.63;4.70;;;6.10;99.90;;;;;;5077105;28;20567;-60
2023/04/20 02:18:55;;;;;;;8.07;4.60;;;6.10;99.90;;;;;;5077341;28;20457;-60
2023/04/20 02:21:22;;;;;;;5.60;4.60;;;6.00;99.90;;;;;;5077298;28;20530;-60
2023/04/20 02:23:49;;;;;;;7.60;5.80;;;6.10;99.90;;;;;;5076645;28;20475;-60
2023/04/20 02:26:17;;;;;;;9.73;5.40;;;6.10;99.90;;;;;;5076610;28;20469;-60
2023/04/20 02:28:44;;;;;;;7.30;5.30;;;6.10;99.90;;;;;;5076495;28;21005;-60
2023/04/20 02:31:11;;;;;;;7.37;4.40;;;6.10;99.90;;;;;;5076916;28;20870;-61
2023/04/20 02:33:41;;;;;;;7.60;5.27;;;6.20;99.90;;;;;;5076420;28;20468;-60
2023/04/20 02:36:09;;;;;;;6.20;4.30;;;6.20;99.90;;;;;;5076045;28;20512;-60
2023/04/20 02:38:36;;;;;;;8.30;5.23;;;6.20;99.90;;;;;;5075793;28;20460;-61
2023/04/20 02:41:04;;;;;;;4.83;4.33;;;6.20;99.90;;;;;;5076770;28;20518;-61
2023/04/20 02:43:32;;;;;;;8.33;5.20;;;6.20;99.90;;;;;;5076317;28;20461;-62
2023/04/20 02:46:00;;;;;;;7.87;5.80;;;6.20;99.90;;;;;;5076434;28;20827;-60
2023/04/20 02:48:27;;;;;;;5.90;5.00;;;6.20;99.90;;;;;;5076564;28;20496;-61
2023/04/20 02:50:57;;;;;;;5.57;4.93;;;6.30;99.90;;;;;;5076393;28;20556;-60
2023/04/20 02:53:24;;;;;;;9.47;5.60;;;6.30;99.90;;;;;;5076718;28;20436;-60
2023/04/20 02:55:51;;;;;;;9.43;5.30;;;6.30;99.90;;;;;;5074433;28;20556;-60
2023/04/20 02:58:18;;;;;;;6.83;5.40;;;6.30;99.90;;;;;;5074941;28;20457;-61
2023/04/20 03:00:46;;;;;;;7.53;4.80;;;6.30;99.90;;;;;;5075027;28;20544;-60
2023/04/20 03:03:13;;;;;;;5.73;4.77;;;6.30;99.90;;;;;;5074841;28;20471;-60
2023/04/20 03:05:41;;;;;;;6.90;5.33;;;6.30;99.90;;;;;;5076987;28;20551;-61
2023/04/20 03:08:09;;;;;;;6.80;4.70;;;6.30;99.90;;;;;;5078418;28;20490;-60
2023/04/20 03:10:39;;;;;;;7.03;4.90;;;6.30;99.90;;;;;;5078067;28;20465;-61
2023/04/20 03:13:06;;;;;;;8.40;4.50;;;6.30;99.90;;;;;;5078621;28;20457;-61
2023/04/20 03:15:33;;;;;;;7.20;4.87;;;6.30;99.90;;;;;;5079439;28;20563;-61
2023/04/20 03:18:00;;;;;;;9.20;4.07;;;6.30;99.90;;;;;;5079397;28;20555;-61
2023/04/20 03:20:28;;;;;;;5.17;4.67;;;6.30;99.90;;;;;;5079834;28;20564;-61
2023/04/20 03:22:55;;;;;;;7.30;4.63;;;6.30;99.90;;;;;;5079815;28;20556;-63
2023/04/20 03:25:26;;;;;;;6.40;5.00;;;6.30;99.90;;;;;;5080026;28;20465;-63
2023/04/20 03:27:53;;;;;;;10.83;5.00;;;6.30;99.90;;;;;;5079168;28;20775;-63
2023/04/20 03:30:22;;;;;;;5.57;4.77;;;6.30;99.90;;;;;;5079774;28;20439;-63
2023/04/20 03:32:49;;;;;;;7.73;4.90;;;6.20;99.90;;;;;;5079912;28;20555;-64
2023/04/20 03:35:17;;;;;;;5.03;4.50;;;6.30;99.90;;;;;;5079561;28;20556;-63
2023/04/20 03:37:46;;;;;;;6.97;5.20;;;6.20;99.90;;;;;;5079195;28;20462;-63
2023/04/20 03:40:14;;;;;;;5.80;4.73;;;6.20;99.90;;;;;;5079099;28;20772;-63
2023/04/20 03:42:43;;;;;;;7.50;5.47;;;6.20;99.90;;;;;;5079281;28;20496;-63
2023/04/20 03:45:11;;;;;;;8.67;5.43;;;6.20;99.90;;;;;;5079392;28;20493;-63
2023/04/20 03:47:38;;;;;;;9.63;5.23;;;6.20;99.90;;;;;;5078971;28;20954;-62
2023/04/20 03:50:07;;;;;;;7.90;4.93;;;6.20;99.90;;;;;;5078890;28;20560;-63
2023/04/20 03:52:34;;;;;;;7.27;4.80;;;6.30;99.90;;;;;;5079295;28;20905;-63
2023/04/20 03:55:01;;;;;;;6.77;5.97;;;6.30;99.90;;;;;;5079230;28;20469;-63
2023/04/20 03:57:28;;;;;;;6.10;4.70;;;6.30;99.90;;;;;;5078966;28;20516;-62
2023/04/20 03:59:57;;;;;;;8.50;5.63;;;6.30;99.90;;;;;;5078572;28;20471;-63
2023/04/20 04:02:24;;;;;;;8.40;5.47;;;6.20;99.90;;;;;;5079086;28;20465;-62
2023/04/20 04:04:51;;;;;;;6.80;5.37;;;6.20;99.90;;;;;;5078920;28;20465;-62
2023/04/20 04:07:18;;;;;;;7.10;4.93;;;6.30;99.90;;;;;;5078658;28;20556;-62
2023/04/20 04:09:46;;;;;;;6.40;5.60;;;6.20;99.90;;;;;;5078400;28;20559;-62
2023/04/20 04:12:13;;;;;;;6.53;5.83;;;6.30;99.90;;;;;;5078969;28;20488;-62
2023/04/20 04:14:40;;;;;;;5.83;5.30;;;6.20;99.90;;;;;;5078814;28;20662;-63
2023/04/20 04:17:09;;;;;;;6.83;6.17;;;6.20;99.90;;;;;;5078103;28;20530;-64
2023/04/20 04:19:36;;;;;;;8.33;6.07;;;6.10;99.90;;;;;;5078331;28;20855;-64
2023/04/20 04:22:03;;;;;;;13.87;7.60;;;6.00;99.90;;;;;;5078388;28;20552;-64
2023/04/20 04:24:32;;;;;;;7.47;6.53;;;6.10;99.90;;;;;;5078387;28;20555;-64
2023/04/20 04:27:04;;;;;;;8.33;6.50;;;6.10;99.90;;;;;;5078054;28;20984;-63
2023/04/20 04:29:34;;;;;;;6.30;5.60;;;6.20;99.90;;;;;;5077872;28;20492;-64
2023/04/20 04:32:02;;;;;;;8.30;6.40;;;6.10;99.90;;;;;;5076363;28;20554;-64
2023/04/20 04:34:32;;;;;;;8.10;5.87;;;6.10;99.90;;;;;;5077807;28;20533;-64
2023/04/20 04:36:59;;;;;;;8.83;6.50;;;6.10;99.90;;;;;;5075468;28;20474;-64
2023/04/20 04:39:28;;;;;;;13.73;7.07;;;6.10;99.90;;;;;;5074933;28;20889;-64
2023/04/20 04:41:56;;;;;;;9.10;7.00;;;6.20;99.90;;;;;;5075005;28;20465;-63
2023/04/20 04:44:24;;;;;;;11.03;7.80;;;6.10;99.90;;;;;;5076243;28;20467;-64
2023/04/20 04:46:52;;;;;;;9.77;7.47;;;6.10;99.90;;;;;;5074507;28;20568;-64
2023/04/20 04:49:20;;;;;;;9.03;7.73;;;6.10;99.90;;;;;;5074986;28;20543;-63
2023/04/20 04:51:50;;;;;;;8.50;6.93;;;6.20;99.90;;;;;;5075072;28;20500;-64
2023/04/20 04:54:18;;;;;;;10.13;7.20;;;6.20;99.90;;;;;;5075931;28;20468;-64
2023/04/20 04:56:45;;;;;;;10.00;7.37;;;6.30;99.90;;;;;;5077702;28;20838;-64
2023/04/20 04:59:12;;;;;;;10.87;8.00;;;6.30;99.90;;;;;;5077690;28;20927;-60
2023/04/20 05:01:39;;;;;;;9.90;7.87;;;6.20;99.90;;;;;;5077525;28;20942;-63
2023/04/20 05:04:06;;;;;;;10.80;7.77;;;6.20;99.90;;;;;;5077491;28;20462;-64
2023/04/20 05:06:33;;;;;;;9.00;6.93;;;6.20;99.90;;;;;;5075043;28;20812;-63
2023/04/20 05:09:03;;;;;;;9.23;8.27;;;6.20;99.90;;;;;;5076503;28;20484;-63
2023/04/20 05:11:30;;;;;;;18.27;7.90;;;6.20;99.90;;;;;;5076070;28;20566;-62
2023/04/20 05:13:58;;;;;;;11.37;7.80;;;6.20;99.90;;;;;;5075490;28;20462;-63
2023/04/20 05:16:25;;;;;;;9.47;7.70;;;6.20;99.90;;;;;;5074972;28;20467;-63
2023/04/20 05:18:52;;;;;;;13.10;7.80;;;6.20;99.90;;;;;;5075699;28;20898;-63
2023/04/20 05:21:19;;;;;;;12.13;7.50;;;6.30;99.90;;;;;;5075788;28;20496;-62
2023/04/20 05:23:47;;;;;;;10.90;8.70;;;6.20;99.90;;;;;;5075737;28;20867;-62
2023/04/20 05:26:15;;;;;;;13.03;8.57;;;6.20;99.90;;;;;;5076100;28;20821;-63
2023/04/20 05:28:42;;;;;;;9.37;8.10;;;6.20;99.90;;;;;;5075903;28;21022;-63
2023/04/20 05:31:10;;;;;;;16.47;8.80;;;6.20;99.90;;;;;;5076847;28;20457;-63
2023/04/20 05:33:37;;;;;;;8.83;7.93;;;6.20;99.90;;;;;;5076821;28;20465;-63
2023/04/20 05:36:08;;;;;;;9.70;8.27;;;6.20;99.90;;;;;;5077071;28;20869;-63
2023/04/20 05:38:35;;;;;;;10.97;9.87;;;6.20;99.90;;;;;;5074996;28;20796;-60
2023/04/20 05:41:03;;;;;;;17.20;9.10;;;6.20;99.90;;;;;;5076470;28;20469;-62
2023/04/20 05:43:32;;;;;;;12.50;9.00;;;6.10;99.90;;;;;;5074987;28;20830;-61
2023/04/20 05:45:59;;;;;;;10.40;9.30;;;6.10;99.90;;;;;;5075814;28;20843;-63
2023/04/20 05:48:27;;;;;;;11.10;9.63;;;6.10;99.90;;;;;;5076105;28;20492;-62
2023/04/20 05:50:54;;;;;;;15.27;10.90;;;6.10;99.90;;;;;;5076139;28;20464;-64
2023/04/20 05:53:21;;;;;;;22.90;14.80;;;6.20;99.90;;;;;;5075007;28;20469;-64
2023/04/20 05:55:49;;;;;;;13.33;10.80;;;6.10;99.90;;;;;;5076715;28;20523;-62
2023/04/20 05:58:16;;;;;;;12.43;9.60;;;6.10;99.90;;;;;;5076039;28;20840;-60
2023/04/20 06:00:45;;;;;;;12.80;11.47;;;6.00;1.00;;;;;;5073252;28;20559;-61
2023/04/20 06:03:12;;;;;;;13.23;11.73;;;5.90;1.00;;;;;;5075785;28;20450;-56
2023/04/20 06:05:39;;;;;;;10.87;9.40;;;5.90;1.00;;;;;;5075799;28;20503;-61
2023/04/20 06:08:06;;;;;;;11.50;9.10;;;5.90;1.00;;;;;;5075871;28;20806;-62
2023/04/20 06:10:34;;;;;;;9.57;8.67;;;5.90;1.00;;;;;;5076608;28;20552;-60
2023/04/20 06:13:01;;;;;;;9.73;7.60;;;5.90;1.00;;;;;;5076872;28;20961;-61
2023/04/20 06:15:28;;;;;;;8.50;7.70;;;5.80;16.80;;;;;;5076628;28;20492;-60
2023/04/20 06:17:57;;;;;;;10.17;7.87;;;5.90;99.90;;;;;;5076885;28;20523;-60
2023/04/20 06:20:24;;;;;;;10.57;8.87;;;5.80;59.70;;;;;;5076453;28;20544;-62
2023/04/20 06:22:51;;;;;;;9.90;8.10;;;5.80;99.90;;;;;;5076801;28;20460;-63
2023/04/20 06:25:19;;;;;;;9.20;8.30;;;5.90;99.90;;;;;;5076719;28;20461;-63
2023/04/20 06:27:46;;;;;;;9.70;8.37;;;5.90;99.90;;;;;;5076608;28;20496;-62
2023/04/20 06:30:15;;;;;;;10.70;8.53;;;5.80;99.90;;;;;;5076294;28;20490;-63
2023/04/20 06:32:42;;;;;;;10.03;8.80;;;5.70;99.90;;;;;;5076806;28;20469;-62
2023/04/20 06:35:11;;;;;;;9.63;8.00;;;5.70;99.90;;;;;;5075821;28;20465;-61
2023/04/20 06:37:39;;;;;;;8.43;7.63;;;5.80;99.90;;;;;;5075155;28;20554;-64
2023/04/20 06:40:08;;;;;;;9.87;8.27;;;5.70;99.90;;;;;;5078045;28;20468;-63
2023/04/20 06:42:35;;;;;;;9.77;7.50;;;5.60;99.90;;;;;;5078878;28;20758;-64
2023/04/20 06:45:02;;;;;;;8.23;7.43;;;5.60;99.90;;;;;;5078165;28;20535;-61
2023/04/20 06:47:32;;;;;;;8.37;7.47;;;5.60;99.90;;;;;;5078632;28;21215;-63
2023/04/20 06:49:59;;;;;;;8.77;7.83;;;5.60;99.90;;;;;;5078835;28;20500;-63
2023/04/20 06:52:29;;;;;;;9.40;8.40;;;5.60;99.90;;;;;;5079036;28;20461;-61
2023/04/20 06:54:59;;;;;;;10.10;8.40;;;5.60;99.90;;;;;;5079835;28;20431;-64
2023/04/20 06:57:26;;;;;;;9.20;7.77;;;5.60;99.90;;;;;;5080140;28;20457;-65
2023/04/20 06:59:53;;;;;;;9.93;8.90;;;5.70;99.90;;;;;;5079760;28;20457;-65
2023/04/20 07:02:21;;;;;;;8.87;7.93;;;5.80;99.90;;;;;;5078059;28;20559;-66
2023/04/20 07:04:48;;;;;;;9.50;8.20;;;5.90;99.90;;;;;;5075978;28;20781;-65
2023/04/20 07:07:15;;;;;;;8.27;7.47;;;5.90;99.90;;;;;;5077890;28;20556;-66
2023/04/20 07:09:44;;;;;;;9.67;8.03;;;5.80;34.70;;;;;;5077999;28;20874;-67
2023/04/20 07:12:14;;;;;;;8.07;7.27;;;6.00;99.90;;;;;;5077892;28;20508;-66
2023/04/20 07:14:42;;;;;;;9.07;8.00;;;6.00;67.10;;;;;;5077994;28;20453;-66
2023/04/20 07:17:09;;;;;;;8.63;7.83;;;6.00;1.00;;;;;;5078044;28;20512;-66
2023/04/20 07:19:36;;;;;;;8.27;7.47;;;6.00;1.00;;;;;;5076952;28;20457;-66
2023/04/20 07:22:03;;;;;;;9.67;7.90;;;6.10;1.00;;;;;;5076555;28;20929;-66
2023/04/20 07:24:30;;;;;;;8.73;7.93;;;6.10;1.00;;;;;;5076280;28;20961;-66
2023/04/20 07:26:59;;;;;;;8.47;7.27;;;6.10;1.00;;;;;;5075925;28;20858;-66
2023/04/20 07:29:27;;;;;;;8.70;7.80;;;6.10;1.00;;;;;;5075377;28;20493;-65
2023/04/20 07:31:54;;;;;;;7.63;6.93;;;6.10;1.00;;;;;;5075362;28;20458;-66
2023/04/20 07:34:21;;;;;;;7.70;6.53;;;6.10;1.00;;;;;;5077625;28;20464;-65
2023/04/20 07:36:48;;;;;;;7.93;7.20;;;6.20;1.00;;;;;;5078755;28;20458;-66
2023/04/20 07:39:15;;;;;;;7.10;6.40;;;6.10;1.00;;;;;;5077862;28;20859;-66
2023/04/20 07:41:43;;;;;;;8.13;6.80;;;6.00;1.00;;;;;;5077278;28;20461;-66
2023/04/20 07:44:13;;;;;;;9.07;8.17;;;6.00;1.00;;;;;;5077450;28;20784;-66
2023/04/20 07:46:40;;;;;;;8.30;7.37;;;6.20;1.00;;;;;;5077847;28;20897;-66
2023/04/20 07:49:07;;;;;;;11.00;7.47;;;6.20;1.00;;;;;;5077294;28;20474;-66
2023/04/20 07:51:35;;;;;;;8.07;7.27;;;6.20;1.00;;;;;;5076266;28;20450;-66
2023/04/20 07:54:02;;;;;;;8.57;7.40;;;6.20;1.00;;;;;;5078692;28;20468;-66
2023/04/20 07:56:30;;;;;;;8.53;7.17;;;6.20;1.00;;;;;;5078434;28;20436;-66
2023/04/20 07:58:58;;;;;;;8.90;6.70;;;6.30;1.00;;;;;;5077432;28;20515;-65
2023/04/20 08:01:26;;;;;;;8.30;7.27;;;6.20;1.00;;;;;;5077102;28;20471;-66
2023/04/20 08:03:54;;;;;;;11.50;7.90;;;6.30;1.00;;;;;;5076885;28;20442;-66
2023/04/20 08:06:21;;;;;;;10.77;7.70;;;6.30;1.00;;;;;;5077539;28;20461;-67
2023/04/20 08:08:49;;;;;;;10.20;7.47;;;6.40;1.00;;;;;;5078364;28;20436;-65
2023/04/20 08:11:16;;;;;;;9.67;8.67;;;6.20;1.00;;;;;;5078890;28;20496;-66
2023/04/20 08:13:43;;;;;;;9.73;8.73;;;6.20;1.00;;;;;;5078392;28;20457;-66
2023/04/20 08:16:10;;;;;;;10.30;9.30;;;6.20;1.00;;;;;;5078847;28;20439;-66
2023/04/20 08:18:39;;;;;;;13.80;9.80;;;6.10;1.00;;;;;;5079084;28;20475;-67
2023/04/20 08:21:06;;;;;;;9.70;7.83;;;6.10;1.00;;;;;;5078789;28;20462;-66
2023/04/20 08:23:33;;;;;;;10.00;7.07;;;6.00;1.00;;;;;;5058869;28;20768;-65
2023/04/20 08:26:00;;;;;;;8.67;7.77;;;5.90;1.00;;;;;;5058849;28;20471;-65
2023/04/20 08:28:28;;;;;;;8.47;7.50;;;5.90;41.30;;;;;;5058520;28;20552;-65
2023/04/20 08:30:55;;;;;;;7.40;6.70;;;5.80;99.90;;;;;;5058770;28;20497;-68
2023/04/20 08:33:22;;;;;;;6.13;5.53;;;5.70;99.90;;;;;;5058924;28;20469;-67
2023/04/20 08:35:52;;;;;;;7.03;6.37;;;5.80;99.90;;;;;;5058221;28;20459;-68
2023/04/20 08:38:20;;;;;;;6.70;5.57;;;5.90;99.90;;;;;;5057906;28;20466;-67
2023/04/20 08:40:47;;;;;;;6.33;5.57;;;6.00;99.90;;;;;;5058319;28;20754;-66
2023/04/20 08:43:14;;;;;;;6.67;5.70;;;6.30;99.90;;;;;;5069930;28;20927;-67
2023/04/20 08:45:47;;;;;;;6.13;5.53;;;6.60;99.90;;;;;;5077902;28;20499;-67
2023/04/20 08:48:15;;;;;;;6.93;6.10;;;7.20;1.00;;;;;;5077447;28;20517;-67
2023/04/20 08:50:43;;;;;;;6.17;5.40;;;7.60;99.90;;;;;;5076306;28;20493;-63
2023/04/20 08:53:13;;;;;;;6.17;5.20;;;7.80;1.00;;;;;;5076377;28;20820;-63
2023/04/20 08:55:40;;;;;;;5.83;5.00;;;7.90;1.00;;;;;;5076870;28;20815;-63
2023/04/20 08:58:07;;;;;;;6.57;5.87;;;7.60;1.00;;;;;;5075807;28;20461;-58
2023/04/20 09:00:34;;;;;;;6.57;5.70;;;7.70;1.00;;;;;;5074988;28;20440;-62
2023/04/20 09:03:01;;;;;;;6.70;5.90;;;7.70;1.00;;;;;;5074853;28;20502;-61
2023/04/20 09:05:30;;;;;;;6.10;5.50;;;7.50;99.90;;;;;;5074859;28;20493;-62
2023/04/20 09:07:59;;;;;;;6.70;6.00;;;7.50;1.00;;;;;;5073897;28;20497;-62
2023/04/20 09:10:40;;;;;;;6.90;6.20;;;7.90;1.00;;;;;;5074417;28;20772;-63
2023/04/20 09:13:07;;;;;;;5.97;5.27;;;8.60;1.00;;;;;;5075160;28;20904;-62
2023/04/20 09:15:35;;;;;;;6.30;5.60;;;9.20;1.00;;;;;;5076636;28;20462;-63
2023/04/20 09:18:14;;;;;;;8.50;6.20;;;9.40;99.90;;;;;;5076630;28;20461;-62
2023/04/20 09:20:41;;;;;;;6.17;5.57;;;9.80;99.90;;;;;;5077650;28;20463;-63
2023/04/20 09:23:12;;;;;;;5.90;5.33;;;9.70;99.90;;;;;;5077217;28;20560;-61
2023/04/20 09:25:42;;;;;;;5.63;5.07;;;9.60;99.90;;;;;;5076901;28;20497;-63
2023/04/20 09:28:10;;;;;;;8.73;5.90;;;9.10;99.90;;;;;;5077040;28;20489;-62
2023/04/20 09:30:39;;;;;;;5.93;5.33;;;9.30;99.90;;;;;;5076709;28;21025;-63
2023/04/20 09:33:09;;;;;;;6.47;5.87;;;9.30;99.90;;;;;;5077519;28;20457;-63
2023/04/20 09:35:37;;;;;;;6.27;5.67;;;9.10;99.90;;;;;;5077009;28;20461;-63
2023/04/20 09:38:04;;;;;;;5.90;5.30;;;9.00;99.90;;;;;;5076663;28;20461;-62
2023/04/20 09:40:33;;;;;;;5.83;5.20;;;9.00;99.90;;;;;;5077001;28;20831;-62
2023/04/20 09:43:07;;;;;;;5.67;5.17;;;8.80;99.90;;;;;;5077378;28;20910;-63
2023/04/20 09:45:35;;;;;;;6.47;5.50;;;8.50;99.90;;;;;;5075243;28;20454;-62
2023/04/20 09:48:06;;;;;;;6.60;5.90;;;8.20;99.90;;;;;;5076253;28;20466;-61
2023/04/20 09:50:35;;;;;;;5.73;5.23;;;8.20;99.90;;;;;;5076470;28;20531;-62
2023/04/20 09:53:04;;;;;;;8.03;5.93;;;8.10;99.90;;;;;;5077088;28;20519;-63
2023/04/20 09:55:31;;;;;;;6.90;6.07;;;8.20;99.90;;;;;;5076019;28;20488;-63
2023/04/20 09:57:58;;;;;;;6.57;5.97;;;8.30;99.90;;;;;;5076680;28;20555;-62
2023/04/20 10:00:27;;;;;;;8.17;6.63;;;8.30;99.90;;;;;;5077006;28;20714;-63
2023/04/20 10:02:55;;;;;;;7.17;6.47;;;8.40;99.90;;;;;;5077120;28;20482;-62
2023/04/20 10:05:33;;;;;;;7.33;6.63;;;8.60;99.90;;;;;;5077266;28;20530;-64
2023/04/20 10:08:01;;;;;;;5.90;5.40;;;9.60;99.90;;;;;;5076924;28;20465;-62
2023/04/20 10:10:28;;;;;;;6.17;5.57;;;10.40;99.90;;;;;;5076881;28;20488;-62
2023/04/20 10:12:57;;;;;;;5.93;5.37;;;11.10;99.90;;;;;;5074811;28;20473;-61
2023/04/20 10:15:36;;;;;;;4.80;4.40;;;11.90;99.90;;;;;;5076801;28;20980;-63
2023/04/20 10:18:16;;;;;;;6.17;5.03;;;12.00;99.90;;;;;;5080740;28;20465;-61
2023/04/20 10:20:43;;;;;;;4.53;3.93;;;12.40;99.90;;;;;;5080430;28;20748;-61
2023/04/20 10:23:13;;;;;;;4.83;4.40;;;12.20;99.90;;;;;;5079044;28;20473;-61
2023/04/20 10:25:41;;;;;;;5.23;4.83;;;11.40;99.90;;;;;;5080433;28;20462;-61
2023/04/20 10:28:09;;;;;;;5.43;4.93;;;10.70;99.90;;;;;;5080349;28;20512;-61
2023/04/20 10:30:38;;;;;;;4.97;4.50;;;10.50;99.90;;;;;;5072483;28;20781;-60
2023/04/20 10:33:08;;;;;;;4.50;4.10;;;10.30;99.90;;;;;;5076438;28;20790;-59
2023/04/20 10:35:46;;;;;;;10.80;4.87;;;10.10;99.90;;;;;;5080395;28;20769;-63
2023/04/20 10:38:14;;;;;;;5.47;4.87;;;10.40;99.90;;;;;;5080677;28;20456;-62
2023/04/20 10:40:42;;;;;;;4.07;3.70;;;10.80;99.90;;;;;;5079917;28;20461;-62
2023/04/20 10:43:20;;;;;;;3.70;3.40;;;10.90;99.90;;;;;;5079994;28;20483;-63
2023/04/20 10:45:47;;;;;;;3.70;3.40;;;10.80;99.90;;;;;;5079974;28;20439;-61
2023/04/20 10:48:16;;;;;;;4.20;3.80;;;10.70;99.90;;;;;;5080170;28;20488;-61
2023/04/20 10:50:43;;;;;;;3.43;3.13;;;10.60;99.90;;;;;;5080692;28;20485;-62
2023/04/20 10:53:21;;;;;;;4.13;3.83;;;10.60;99.90;;;;;;5078337;28;20453;-61
2023/04/20 10:55:57;;;;;;;3.70;3.40;;;10.50;99.90;;;;;;5077932;28;20555;-60
2023/04/20 10:58:25;;;;;;;3.53;3.20;;;10.30;99.90;;;;;;5077856;28;20475;-61
2023/04/20 11:00:59;;;;;;;3.90;3.50;;;10.20;99.90;;;;;;5077760;28;20552;-62
2023/04/20 11:03:30;;;;;;;3.80;3.50;;;10.30;99.90;;;;;;5077949;28;20967;-62
2023/04/20 11:06:00;;;;;;;2.90;2.70;;;10.60;99.90;;;;;;5077912;28;20465;-61
2023/04/20 11:08:37;;;;;;;4.00;3.60;;;10.90;99.90;;;;;;5078867;28;20465;-62
2023/04/20 11:11:05;;;;;;;4.00;3.70;;;11.00;99.90;;;;;;5077845;28;20497;-59
2023/04/20 11:13:33;;;;;;;3.40;3.17;;;11.10;99.90;;;;;;5077518;28;20750;-61
2023/04/20 11:16:09;;;;;;;4.40;3.13;;;11.00;99.90;;;;;;5077803;28;20458;-61
2023/04/20 11:18:49;;;;;;;3.50;3.20;;;11.10;99.90;;;;;;5077886;28;20457;-62
2023/04/20 11:21:16;;;;;;;3.73;3.33;;;11.10;99.90;;;;;;5076724;28;20528;-62
2023/04/20 11:23:43;;;;;;;3.50;3.20;;;11.40;99.90;;;;;;5060517;28;20486;-61
2023/04/20 11:26:11;;;;;;;3.40;3.10;;;11.50;99.90;;;;;;5055204;28;20466;-61
2023/04/20 11:28:38;;;;;;;3.83;3.50;;;11.20;99.90;;;;;;5058207;28;20581;-61
2023/04/20 11:31:06;;;;;;;4.00;3.70;;;11.00;99.90;;;;;;5057683;28;20865;-57
2023/04/20 11:33:33;;;;;;;4.10;3.57;;;11.00;99.90;;;;;;5067946;28;20510;-61
2023/04/20 11:36:01;;;;;;;3.63;3.20;;;11.20;99.90;;;;;;5078939;28;20560;-61
2023/04/20 11:38:30;;;;;;;3.73;3.20;;;11.40;99.90;;;;;;5078535;28;20520;-62
2023/04/20 11:41:03;;;;;;;3.43;3.13;;;11.30;99.90;;;;;;5077954;28;20462;-61
2023/04/20 11:43:31;;;;;;;3.57;3.00;;;11.20;99.90;;;;;;5078040;28;20546;-61
2023/04/20 11:45:58;;;;;;;3.97;3.57;;;10.90;99.90;;;;;;5078450;28;20453;-59
2023/04/20 11:48:26;;;;;;;4.20;3.90;;;11.10;99.90;;;;;;5077620;28;20462;-57
2023/04/20 11:50:53;;;;;;;4.10;3.80;;;11.60;99.90;;;;;;5078074;28;20493;-61
2023/04/20 11:53:22;;;;;;;4.03;3.63;;;11.70;99.90;;;;;;5076837;28;20457;-61
2023/04/20 11:55:49;;;;;;;5.17;4.20;;;11.60;99.90;;;;;;5076263;28;20453;-60
2023/04/20 11:58:16;;;;;;;4.30;3.90;;;11.60;99.90;;;;;;5077515;28;20470;-60
2023/04/20 12:00:43;;;;;;;4.47;4.07;;;11.50;99.90;;;;;;5075131;28;20453;-58
2023/04/20 12:03:10;;;;;;;4.20;3.80;;;11.40;99.90;;;;;;5076879;28;20445;-60
2023/04/20 12:05:38;;;;;;;4.50;4.10;;;11.20;99.90;;;;;;5076554;28;20479;-61
2023/04/20 12:08:07;;;;;;;5.13;4.60;;;10.90;99.90;;;;;;5075794;28;20457;-59
2023/04/20 12:10:35;;;;;;;4.60;4.20;;;11.30;99.90;;;;;;5075682;28;20485;-59
2023/04/20 12:13:03;;;;;;;5.27;4.83;;;11.50;99.90;;;;;;5075635;28;20842;-60
2023/04/20 12:15:30;;;;;;;5.23;4.80;;;11.50;99.90;;;;;;5075635;28;20439;-58
2023/04/20 12:17:57;;;;;;;5.53;4.60;;;11.50;99.90;;;;;;5075402;28;20496;-57
2023/04/20 12:20:25;;;;;;;4.20;3.90;;;11.30;99.90;;;;;;5073991;28;20580;-62
2023/04/20 12:22:52;;;;;;;4.40;4.00;;;11.30;99.90;;;;;;5072279;28;20826;-61
2023/04/20 12:25:19;;;;;;;8.50;5.17;;;11.40;99.90;;;;;;5073081;28;20497;-58
2023/04/20 12:27:48;;;;;;;4.90;4.40;;;11.60;99.90;;;;;;5073346;28;20579;-59
2023/04/20 12:30:15;;;;;;;4.80;4.40;;;12.50;99.90;;;;;;5071744;28;20461;-55
2023/04/20 12:32:43;;;;;;;4.83;4.43;;;13.70;99.90;;;;;;5072642;28;20996;-59
2023/04/20 12:35:10;;;;;;;5.30;4.90;;;14.70;99.90;;;;;;5074189;28;20858;-60
2023/04/20 12:37:37;;;;;;;6.07;5.47;;;15.20;99.90;;;;;;5073791;28;20457;-57
2023/04/20 12:40:06;;;;;;;5.20;4.70;;;14.80;99.90;;;;;;5074473;28;20484;-56
2023/04/20 12:42:33;;;;;;;5.57;5.07;;;13.70;99.90;;;;;;5073875;28;20512;-61
2023/04/20 12:45:02;;;;;;;5.77;5.20;;;12.90;99.90;;;;;;5075940;28;20962;-55
2023/04/20 12:47:29;;;;;;;6.50;5.90;;;12.00;99.90;;;;;;5074631;28;20484;-59
2023/04/20 12:49:56;;;;;;;6.60;6.00;;;11.50;99.90;;;;;;5071512;28;20917;-56
2023/04/20 12:52:24;;;;;;;5.93;5.37;;;11.80;99.90;;;;;;5074993;28;20689;-58
2023/04/20 12:54:51;;;;;;;5.50;5.00;;;12.70;99.90;;;;;;5075142;28;20465;-57
2023/04/20 12:57:19;;;;;;;5.83;5.33;;;13.10;99.90;;;;;;5075404;28;20461;-59
2023/04/20 12:59:47;;;;;;;5.67;5.27;;;12.80;99.90;;;;;;5075792;28;20509;-58